Terminal Aerodrome Forecast
Issued by NWS Cleveland, OH

Home | Current Version | Previous Version | Text Only | Print | Product List | Glossary On
Versions: 1 2 3 4 5 6 7 8 9 10 11 12 13 14 15 16 17 18 19 20 21 22 23 24
000
FTUS41 KCLE 021729
TAFCLE
TAF
KCLE 021729Z 0218/0324 25008KT P6SM VCSH SCT050
     FM022200 29008KT P6SM VCSH SCT050 BKN150
     FM030500 22005KT P6SM SCT250
     FM031200 27005KT P6SM BKN100
     FM031500 35008KT P6SM VCSH BKN060 OVC100
     FM031900 35008KT P6SM SCT060 SCT150=

USA.gov is the U.S. government's official web portal to all federal, state and local government web resources and services.